sensor_id;sensor_type;location;lat;lon;timestamp;pressure;altitude;pressure_sealevel;temperature;humidity
69187;BME280;56301;56.864;60.554;2023-12-20T00:01:10;97622.16;;;27.00;28.31
69187;BME280;56301;56.864;60.554;2023-12-20T00:03:33;97625.94;;;26.99;27.59
69187;BME280;56301;56.864;60.554;2023-12-20T00:05:55;97618.63;;;27.00;27.60
69187;BME280;56301;56.864;60.554;2023-12-20T00:08:18;97623.22;;;26.99;27.86
69187;BME280;56301;56.864;60.554;2023-12-20T00:10:40;97609.66;;;26.99;27.88
69187;BME280;56301;56.864;60.554;2023-12-20T00:13:03;97617.19;;;26.97;28.01
69187;BME280;56301;56.864;60.554;2023-12-20T00:15:25;97625.34;;;26.97;28.06
69187;BME280;56301;56.864;60.554;2023-12-20T00:17:48;97623.69;;;26.96;28.38
69187;BME280;56301;56.864;60.554;2023-12-20T00:20:10;97619.31;;;26.95;27.20
69187;BME280;56301;56.864;60.554;2023-12-20T00:22:33;97614.72;;;26.96;27.51
69187;BME280;56301;56.864;60.554;2023-12-20T00:24:55;97619.06;;;26.97;28.12
69187;BME280;56301;56.864;60.554;2023-12-20T00:27:18;97620.16;;;26.96;28.46
69187;BME280;56301;56.864;60.554;2023-12-20T00:29:40;97596.53;;;26.96;27.93
69187;BME280;56301;56.864;60.554;2023-12-20T00:32:03;97606.56;;;26.96;27.79
69187;BME280;56301;56.864;60.554;2023-12-20T00:34:25;97608.47;;;26.95;28.14
69187;BME280;56301;56.864;60.554;2023-12-20T00:36:47;97595.47;;;26.97;27.99
69187;BME280;56301;56.864;60.554;2023-12-20T00:39:10;97600.91;;;26.97;27.71
69187;BME280;56301;56.864;60.554;2023-12-20T00:41:32;97595.47;;;26.97;27.80
69187;BME280;56301;56.864;60.554;2023-12-20T00:43:55;97586.28;;;26.98;28.15
69187;BME280;56301;56.864;60.554;2023-12-20T00:46:17;97576.47;;;26.97;28.42
69187;BME280;56301;56.864;60.554;2023-12-20T00:48:40;97579.19;;;26.97;27.98
69187;BME280;56301;56.864;60.554;2023-12-20T00:51:02;97575.66;;;26.97;27.78
69187;BME280;56301;56.864;60.554;2023-12-20T00:53:25;97568.78;;;26.94;27.40
69187;BME280;56301;56.864;60.554;2023-12-20T00:55:47;97570.09;;;26.92;27.95
69187;BME280;56301;56.864;60.554;2023-12-20T00:58:10;97568.19;;;26.92;27.69
69187;BME280;56301;56.864;60.554;2023-12-20T01:00:33;97564.66;;;26.92;27.98
69187;BME280;56301;56.864;60.554;2023-12-20T01:02:55;97569.84;;;26.93;27.09
69187;BME280;56301;56.864;60.554;2023-12-20T01:05:18;97552.97;;;26.91;27.89
69187;BME280;56301;56.864;60.554;2023-12-20T01:07:40;97562.97;;;26.91;27.76
69187;BME280;56301;56.864;60.554;2023-12-20T01:10:03;97550.84;;;26.93;27.78
69187;BME280;56301;56.864;60.554;2023-12-20T01:12:25;97548.56;;;26.90;27.27
69187;BME280;56301;56.864;60.554;2023-12-20T01:14:48;97548.00;;;26.88;28.04
69187;BME280;56301;56.864;60.554;2023-12-20T01:17:10;97549.63;;;26.89;27.92
69187;BME280;56301;56.864;60.554;2023-12-20T01:19:33;97547.16;;;26.87;26.84
69187;BME280;56301;56.864;60.554;2023-12-20T01:21:55;97534.88;;;26.85;27.47
69187;BME280;56301;56.864;60.554;2023-12-20T01:24:18;97526.28;;;26.88;27.53
69187;BME280;56301;56.864;60.554;2023-12-20T01:26:40;97527.47;;;26.92;27.93
69187;BME280;56301;56.864;60.554;2023-12-20T01:29:03;97522.88;;;26.93;27.60
69187;BME280;56301;56.864;60.554;2023-12-20T01:31:26;97511.19;;;26.92;27.64
69187;BME280;56301;56.864;60.554;2023-12-20T01:33:48;97512.84;;;26.93;28.43
69187;BME280;56301;56.864;60.554;2023-12-20T01:36:11;97506.13;;;26.96;28.38
69187;BME280;56301;56.864;60.554;2023-12-20T01:38:33;97518.88;;;26.95;27.84
69187;BME280;56301;56.864;60.554;2023-12-20T01:40:56;97503.25;;;26.91;27.38
69187;BME280;56301;56.864;60.554;2023-12-20T01:43:18;97505.88;;;26.97;27.69
69187;BME280;56301;56.864;60.554;2023-12-20T01:45:41;97495.03;;;26.97;27.54
69187;BME280;56301;56.864;60.554;2023-12-20T01:48:04;97510.28;;;26.98;27.70
69187;BME280;56301;56.864;60.554;2023-12-20T01:50:27;97510.03;;;27.00;27.71
69187;BME280;56301;56.864;60.554;2023-12-20T01:52:50;97510.88;;;27.00;28.24
69187;BME280;56301;56.864;60.554;2023-12-20T01:55:13;97498.34;;;26.99;27.16
69187;BME280;56301;56.864;60.554;2023-12-20T01:57:35;97501.06;;;26.99;27.54
69187;BME280;56301;56.864;60.554;2023-12-20T01:59:58;97492.31;;;26.97;27.96
69187;BME280;56301;56.864;60.554;2023-12-20T02:02:20;97490.66;;;26.96;27.49
69187;BME280;56301;56.864;60.554;2023-12-20T02:04:43;97482.78;;;26.95;28.09
69187;BME280;56301;56.864;60.554;2023-12-20T02:07:05;97486.06;;;26.97;28.11
69187;BME280;56301;56.864;60.554;2023-12-20T02:09:29;97473.94;;;26.99;27.72
69187;BME280;56301;56.864;60.554;2023-12-20T02:11:52;97464.97;;;26.99;26.86
69187;BME280;56301;56.864;60.554;2023-12-20T02:14:14;97462.25;;;26.99;27.10
69187;BME280;56301;56.864;60.554;2023-12-20T02:16:37;97466.00;;;26.98;27.45
69187;BME280;56301;56.864;60.554;2023-12-20T02:18:59;97463.28;;;26.98;27.24
69187;BME280;56301;56.864;60.554;2023-12-20T02:21:25;97457.63;;;26.99;27.58
69187;BME280;56301;56.864;60.554;2023-12-20T02:23:47;97448.88;;;26.97;27.37
69187;BME280;56301;56.864;60.554;2023-12-20T02:26:10;97451.59;;;26.97;27.29
69187;BME280;56301;56.864;60.554;2023-12-20T02:28:32;97441.34;;;26.99;27.26
69187;BME280;56301;56.864;60.554;2023-12-20T02:30:55;97431.56;;;26.98;26.52
69187;BME280;56301;56.864;60.554;2023-12-20T02:33:18;97425.06;;;26.99;26.78
69187;BME280;56301;56.864;60.554;2023-12-20T02:35:40;97433.22;;;26.99;26.54
69187;BME280;56301;56.864;60.554;2023-12-20T02:38:03;97422.34;;;26.99;27.26
69187;BME280;56301;56.864;60.554;2023-12-20T02:40:25;97428.84;;;26.98;26.92
69187;BME280;56301;56.864;60.554;2023-12-20T02:42:48;97419.84;;;26.98;26.49
69187;BME280;56301;56.864;60.554;2023-12-20T02:45:10;97413.59;;;26.97;27.03
69187;BME280;56301;56.864;60.554;2023-12-20T02:47:32;97416.31;;;26.97;27.40
69187;BME280;56301;56.864;60.554;2023-12-20T02:49:55;97418.00;;;26.98;26.20
69187;BME280;56301;56.864;60.554;2023-12-20T02:52:17;97410.66;;;26.99;27.06
69187;BME280;56301;56.864;60.554;2023-12-20T02:54:40;97402.75;;;26.97;26.77
69187;BME280;56301;56.864;60.554;2023-12-20T02:57:02;97391.88;;;26.97;26.64
69187;BME280;56301;56.864;60.554;2023-12-20T02:59:25;97386.44;;;26.97;26.86
69187;BME280;56301;56.864;60.554;2023-12-20T03:01:47;97386.25;;;26.99;26.69
69187;BME280;56301;56.864;60.554;2023-12-20T03:04:10;97369.13;;;26.98;26.71
69187;BME280;56301;56.864;60.554;2023-12-20T03:06:32;97364.53;;;26.99;27.10
69187;BME280;56301;56.864;60.554;2023-12-20T03:08:55;97358.03;;;27.00;26.79
69187;BME280;56301;56.864;60.554;2023-12-20T03:11:17;97348.81;;;27.01;26.64
69187;BME280;56301;56.864;60.554;2023-12-20T03:13:40;97342.34;;;27.02;26.56
69187;BME280;56301;56.864;60.554;2023-12-20T03:16:09;97351.31;;;27.02;26.61
69187;BME280;56301;56.864;60.554;2023-12-20T03:18:31;97350.50;;;27.02;26.54
69187;BME280;56301;56.864;60.554;2023-12-20T03:20:54;97338.78;;;27.01;27.19
69187;BME280;56301;56.864;60.554;2023-12-20T03:23:16;97326.28;;;27.00;26.48
69187;BME280;56301;56.864;60.554;2023-12-20T03:25:39;97337.75;;;27.02;26.44
69187;BME280;56301;56.864;60.554;2023-12-20T03:28:01;97342.34;;;27.02;26.83
69187;BME280;56301;56.864;60.554;2023-12-20T03:30:24;97329.00;;;27.00;26.14
69187;BME280;56301;56.864;60.554;2023-12-20T03:32:47;97330.63;;;27.01;27.00
69187;BME280;56301;56.864;60.554;2023-12-20T03:35:09;97316.47;;;26.99;26.13
69187;BME280;56301;56.864;60.554;2023-12-20T03:37:32;97305.25;;;26.96;26.82
69187;BME280;56301;56.864;60.554;2023-12-20T03:39:54;97312.22;;;26.92;27.36
69187;BME280;56301;56.864;60.554;2023-12-20T03:42:17;97321.66;;;26.89;27.74
69187;BME280;56301;56.864;60.554;2023-12-20T03:44:40;97316.69;;;26.86;27.28
69187;BME280;56301;56.864;60.554;2023-12-20T03:47:02;97327.31;;;26.87;28.09
69187;BME280;56301;56.864;60.554;2023-12-20T03:49:25;97304.28;;;26.90;27.24
69187;BME280;56301;56.864;60.554;2023-12-20T03:51:47;97307.00;;;26.90;26.85
69187;BME280;56301;56.864;60.554;2023-12-20T03:54:10;97315.41;;;26.88;28.21
69187;BME280;56301;56.864;60.554;2023-12-20T03:56:32;97307.34;;;26.82;27.81
69187;BME280;56301;56.864;60.554;2023-12-20T03:58:55;97304.53;;;26.77;27.83
69187;BME280;56301;56.864;60.554;2023-12-20T04:01:17;97294.97;;;26.74;27.52
69187;BME280;56301;56.864;60.554;2023-12-20T04:03:40;97278.06;;;26.72;27.66
69187;BME280;56301;56.864;60.554;2023-12-20T04:06:02;97278.31;;;26.71;27.41
69187;BME280;56301;56.864;60.554;2023-12-20T04:08:25;97284.19;;;26.68;26.92
69187;BME280;56301;56.864;60.554;2023-12-20T04:10:47;97290.44;;;26.68;27.29
69187;BME280;56301;56.864;60.554;2023-12-20T04:13:10;97290.69;;;26.67;27.17
69187;BME280;56301;56.864;60.554;2023-12-20T04:15:32;97274.41;;;26.67;27.33
69187;BME280;56301;56.864;60.554;2023-12-20T04:17:55;97289.03;;;26.66;27.10
69187;BME280;56301;56.864;60.554;2023-12-20T04:20:17;97284.44;;;26.66;27.10
69187;BME280;56301;56.864;60.554;2023-12-20T04:22:40;97269.44;;;26.63;27.33
69187;BME280;56301;56.864;60.554;2023-12-20T04:25:02;97266.72;;;26.63;27.23
69187;BME280;56301;56.864;60.554;2023-12-20T04:27:25;97272.41;;;26.62;26.80
69187;BME280;56301;56.864;60.554;2023-12-20T04:29:47;97252.56;;;26.61;26.44
69187;BME280;56301;56.864;60.554;2023-12-20T04:32:10;97250.34;;;26.58;26.58
69187;BME280;56301;56.864;60.554;2023-12-20T04:34:32;97242.19;;;26.58;26.27
69187;BME280;56301;56.864;60.554;2023-12-20T04:36:54;97242.19;;;26.58;26.30
69187;BME280;56301;56.864;60.554;2023-12-20T04:39:17;97236.16;;;26.56;26.98
69187;BME280;56301;56.864;60.554;2023-12-20T04:41:39;97225.94;;;26.58;26.29
69187;BME280;56301;56.864;60.554;2023-12-20T04:44:02;97219.44;;;26.59;26.56
69187;BME280;56301;56.864;60.554;2023-12-20T04:46:24;97218.81;;;26.57;26.69
69187;BME280;56301;56.864;60.554;2023-12-20T04:48:47;97214.47;;;26.56;26.18
69187;BME280;56301;56.864;60.554;2023-12-20T04:51:09;97217.44;;;26.55;26.93
69187;BME280;56301;56.864;60.554;2023-12-20T04:53:32;97212.22;;;26.53;26.07
69187;BME280;56301;56.864;60.554;2023-12-20T04:55:54;97210.31;;;26.54;25.80
69187;BME280;56301;56.864;60.554;2023-12-20T04:58:17;97206.78;;;26.53;25.71
69187;BME280;56301;56.864;60.554;2023-12-20T05:00:39;97205.16;;;26.52;26.04
69187;BME280;56301;56.864;60.554;2023-12-20T05:03:01;97198.06;;;26.51;25.67
69187;BME280;56301;56.864;60.554;2023-12-20T05:05:24;97196.41;;;26.50;26.11
69187;BME280;56301;56.864;60.554;2023-12-20T05:07:47;97192.03;;;26.49;26.00
69187;BME280;56301;56.864;60.554;2023-12-20T05:10:09;97190.41;;;26.48;26.60
69187;BME280;56301;56.864;60.554;2023-12-20T05:12:32;97192.88;;;26.50;26.53
69187;BME280;56301;56.864;60.554;2023-12-20T05:14:54;97186.88;;;26.48;26.65
69187;BME280;56301;56.864;60.554;2023-12-20T05:17:16;97190.16;;;26.50;26.51
69187;BME280;56301;56.864;60.554;2023-12-20T05:19:39;97181.19;;;26.49;26.44
69187;BME280;56301;56.864;60.554;2023-12-20T05:22:01;97200.44;;;26.48;26.03
69187;BME280;56301;56.864;60.554;2023-12-20T05:24:24;97195.00;;;26.48;26.02
69187;BME280;56301;56.864;60.554;2023-12-20T05:26:47;97194.19;;;26.47;25.63
69187;BME280;56301;56.864;60.554;2023-12-20T05:29:09;97195.22;;;26.46;26.62
69187;BME280;56301;56.864;60.554;2023-12-20T05:31:32;97192.50;;;26.46;25.82
69187;BME280;56301;56.864;60.554;2023-12-20T05:33:54;97196.25;;;26.45;25.55
69187;BME280;56301;56.864;60.554;2023-12-20T05:36:17;97196.25;;;26.45;25.84
69187;BME280;56301;56.864;60.554;2023-12-20T05:38:39;97182.94;;;26.44;26.58
69187;BME280;56301;56.864;60.554;2023-12-20T05:41:02;97179.16;;;26.45;25.89
69187;BME280;56301;56.864;60.554;2023-12-20T05:43:24;97173.94;;;26.43;26.66
69187;BME280;56301;56.864;60.554;2023-12-20T05:45:47;97173.75;;;26.45;25.93
69187;BME280;56301;56.864;60.554;2023-12-20T05:48:09;97172.91;;;26.44;26.28
69187;BME280;56301;56.864;60.554;2023-12-20T05:50:32;97160.38;;;26.43;25.75
69187;BME280;56301;56.864;60.554;2023-12-20T05:52:54;97160.38;;;26.43;25.55
69187;BME280;56301;56.864;60.554;2023-12-20T05:55:17;97158.28;;;26.45;25.74
69187;BME280;56301;56.864;60.554;2023-12-20T05:57:39;97152.88;;;26.45;26.38
69187;BME280;56301;56.864;60.554;2023-12-20T06:00:02;97152.03;;;26.45;25.83
69187;BME280;56301;56.864;60.554;2023-12-20T06:02:34;97142.84;;;26.46;26.23
69187;BME280;56301;56.864;60.554;2023-12-20T06:04:57;97140.13;;;26.46;26.52
69187;BME280;56301;56.864;60.554;2023-12-20T06:07:19;97138.25;;;26.46;26.46
69187;BME280;56301;56.864;60.554;2023-12-20T06:09:42;97140.75;;;26.48;26.21
69187;BME280;56301;56.864;60.554;2023-12-20T06:12:04;97130.13;;;26.46;25.35
69187;BME280;56301;56.864;60.554;2023-12-20T06:14:27;97130.94;;;26.47;26.30
69187;BME280;56301;56.864;60.554;2023-12-20T06:16:49;97129.28;;;26.46;25.30
69187;BME280;56301;56.864;60.554;2023-12-20T06:19:12;97118.88;;;26.42;26.24
69187;BME280;56301;56.864;60.554;2023-12-20T06:21:34;97123.66;;;26.47;25.86
69187;BME280;56301;56.864;60.554;2023-12-20T06:23:58;97125.53;;;26.47;26.33
69187;BME280;56301;56.864;60.554;2023-12-20T06:26:21;97119.06;;;26.48;25.78
69187;BME280;56301;56.864;60.554;2023-12-20T06:28:43;97102.78;;;26.48;26.36
69187;BME280;56301;56.864;60.554;2023-12-20T06:31:06;97099.25;;;26.47;26.63
69187;BME280;56301;56.864;60.554;2023-12-20T06:33:28;97094.41;;;26.49;26.02
69187;BME280;56301;56.864;60.554;2023-12-20T06:35:50;97101.97;;;26.47;26.64
69187;BME280;56301;56.864;60.554;2023-12-20T06:38:13;97085.69;;;26.47;25.91
69187;BME280;56301;56.864;60.554;2023-12-20T06:40:35;97096.53;;;26.47;26.32
69187;BME280;56301;56.864;60.554;2023-12-20T06:42:58;97089.44;;;26.46;25.79
69187;BME280;56301;56.864;60.554;2023-12-20T06:45:20;97082.13;;;26.47;25.50
69187;BME280;56301;56.864;60.554;2023-12-20T06:47:43;97074.00;;;26.47;25.70
69187;BME280;56301;56.864;60.554;2023-12-20T06:50:05;97072.13;;;26.47;26.40
69187;BME280;56301;56.864;60.554;2023-12-20T06:52:28;97066.72;;;26.47;26.30
69187;BME280;56301;56.864;60.554;2023-12-20T06:54:50;97059.41;;;26.48;25.41
69187;BME280;56301;56.864;60.554;2023-12-20T06:57:12;97059.41;;;26.48;26.22
69187;BME280;56301;56.864;60.554;2023-12-20T06:59:39;97047.72;;;26.47;25.65
69187;BME280;56301;56.864;60.554;2023-12-20T07:02:01;97047.09;;;26.45;26.31
69187;BME280;56301;56.864;60.554;2023-12-20T07:04:24;97046.88;;;26.47;26.60
69187;BME280;56301;56.864;60.554;2023-12-20T07:06:46;97041.66;;;26.45;26.23
69187;BME280;56301;56.864;60.554;2023-12-20T07:09:08;97030.59;;;26.47;26.44
69187;BME280;56301;56.864;60.554;2023-12-20T07:11:31;97029.78;;;26.46;25.77
69187;BME280;56301;56.864;60.554;2023-12-20T07:13:54;97021.88;;;26.45;25.71
69187;BME280;56301;56.864;60.554;2023-12-20T07:16:16;97018.09;;;26.46;26.37
69187;BME280;56301;56.864;60.554;2023-12-20T07:18:39;97024.34;;;26.46;26.55
69187;BME280;56301;56.864;60.554;2023-12-20T07:21:01;97022.69;;;26.45;26.46
69187;BME280;56301;56.864;60.554;2023-12-20T07:23:24;97012.66;;;26.46;26.32
69187;BME280;56301;56.864;60.554;2023-12-20T07:25:46;97014.31;;;26.47;25.55
69187;BME280;56301;56.864;60.554;2023-12-20T07:28:09;97010.78;;;26.46;26.02
69187;BME280;56301;56.864;60.554;2023-12-20T07:30:31;96997.25;;;26.46;26.61
69187;BME280;56301;56.864;60.554;2023-12-20T07:32:54;97005.59;;;26.45;26.33
69187;BME280;56301;56.864;60.554;2023-12-20T07:35:16;97002.66;;;26.46;25.87
69187;BME280;56301;56.864;60.554;2023-12-20T07:37:39;96997.25;;;26.46;26.50
69187;BME280;56301;56.864;60.554;2023-12-20T07:40:01;96994.53;;;26.46;25.79
69187;BME280;56301;56.864;60.554;2023-12-20T07:42:23;96998.91;;;26.47;25.80
69187;BME280;56301;56.864;60.554;2023-12-20T07:44:46;96993.47;;;26.47;26.38
69187;BME280;56301;56.864;60.554;2023-12-20T07:47:08;96993.47;;;26.47;26.07
69187;BME280;56301;56.864;60.554;2023-12-20T07:49:31;96985.19;;;26.42;26.21
69187;BME280;56301;56.864;60.554;2023-12-20T07:51:53;96993.47;;;26.47;26.03
69187;BME280;56301;56.864;60.554;2023-12-20T07:54:16;96986.38;;;26.46;26.37
69187;BME280;56301;56.864;60.554;2023-12-20T07:56:38;96994.31;;;26.48;26.33
69187;BME280;56301;56.864;60.554;2023-12-20T07:59:01;96984.28;;;26.48;26.33
69187;BME280;56301;56.864;60.554;2023-12-20T08:01:23;96986.16;;;26.48;25.60
69187;BME280;56301;56.864;60.554;2023-12-20T08:03:46;96978.84;;;26.48;25.65
69187;BME280;56301;56.864;60.554;2023-12-20T08:06:09;96983.47;;;26.48;26.40
69187;BME280;56301;56.864;60.554;2023-12-20T08:08:31;96982.63;;;26.47;26.04
69187;BME280;56301;56.864;60.554;2023-12-20T08:10:54;96983.69;;;26.46;25.96
69187;BME280;56301;56.864;60.554;2023-12-20T08:13:16;96985.34;;;26.47;25.92
69187;BME280;56301;56.864;60.554;2023-12-20T08:15:39;96984.50;;;26.47;26.44
69187;BME280;56301;56.864;60.554;2023-12-20T08:18:01;96977.22;;;26.47;26.56
69187;BME280;56301;56.864;60.554;2023-12-20T08:20:24;96959.72;;;26.43;26.02
69187;BME280;56301;56.864;60.554;2023-12-20T08:22:46;96977.22;;;26.47;26.21
69187;BME280;56301;56.864;60.554;2023-12-20T08:25:09;96972.59;;;26.48;26.63
69187;BME280;56301;56.864;60.554;2023-12-20T08:27:31;96968.00;;;26.48;25.87
69187;BME280;56301;56.864;60.554;2023-12-20T08:29:54;96963.66;;;26.47;26.38
69187;BME280;56301;56.864;60.554;2023-12-20T08:32:16;96962.81;;;26.47;26.28
69187;BME280;56301;56.864;60.554;2023-12-20T08:34:38;96957.59;;;26.45;26.35
69187;BME280;56301;56.864;60.554;2023-12-20T08:37:01;96960.94;;;26.47;26.44
69187;BME280;56301;56.864;60.554;2023-12-20T08:39:23;96954.66;;;26.47;26.38
69187;BME280;56301;56.864;60.554;2023-12-20T08:41:46;96958.78;;;26.49;26.42
69187;BME280;56301;56.864;60.554;2023-12-20T08:44:09;96957.72;;;26.50;26.59
69187;BME280;56301;56.864;60.554;2023-12-20T08:46:31;96962.59;;;26.48;25.91
69187;BME280;56301;56.864;60.554;2023-12-20T08:48:54;96957.16;;;26.48;26.07
69187;BME280;56301;56.864;60.554;2023-12-20T08:51:16;96955.00;;;26.50;25.78
69187;BME280;56301;56.864;60.554;2023-12-20T08:53:39;96962.31;;;26.50;25.87
69187;BME280;56301;56.864;60.554;2023-12-20T08:56:01;96956.09;;;26.49;26.27
69187;BME280;56301;56.864;60.554;2023-12-20T08:58:23;96954.44;;;26.48;26.42
69187;BME280;56301;56.864;60.554;2023-12-20T09:00:46;96937.09;;;26.49;26.20
69187;BME280;56301;56.864;60.554;2023-12-20T09:03:09;96937.91;;;26.50;26.36
69187;BME280;56301;56.864;60.554;2023-12-20T09:05:31;96942.53;;;26.49;26.02
69187;BME280;56301;56.864;60.554;2023-12-20T09:07:54;96943.59;;;26.48;26.58
69187;BME280;56301;56.864;60.554;2023-12-20T09:10:16;96940.41;;;26.51;25.98
69187;BME280;56301;56.864;60.554;2023-12-20T09:12:39;96927.88;;;26.50;25.90
69187;BME280;56301;56.864;60.554;2023-12-20T09:15:01;96932.03;;;26.53;26.21
69187;BME280;56301;56.864;60.554;2023-12-20T09:17:24;96931.41;;;26.51;26.39
69187;BME280;56301;56.864;60.554;2023-12-20T09:19:46;96926.84;;;26.51;26.63
69187;BME280;56301;56.864;60.554;2023-12-20T09:22:09;96928.72;;;26.51;26.45
69187;BME280;56301;56.864;60.554;2023-12-20T09:24:31;96931.41;;;26.51;26.60
69187;BME280;56301;56.864;60.554;2023-12-20T09:26:54;96933.31;;;26.50;25.52
69187;BME280;56301;56.864;60.554;2023-12-20T09:29:16;96933.31;;;26.50;26.55
69187;BME280;56301;56.864;60.554;2023-12-20T09:31:39;96937.69;;;26.51;26.17
69187;BME280;56301;56.864;60.554;2023-12-20T09:34:01;96935.81;;;26.52;26.11
69187;BME280;56301;56.864;60.554;2023-12-20T09:36:24;96929.56;;;26.51;25.59
69187;BME280;56301;56.864;60.554;2023-12-20T09:38:46;96934.13;;;26.51;26.60
69187;BME280;56301;56.864;60.554;2023-12-20T09:41:09;96924.63;;;26.48;25.86
69187;BME280;56301;56.864;60.554;2023-12-20T09:43:31;96926.00;;;26.51;25.83
69187;BME280;56301;56.864;60.554;2023-12-20T09:45:59;96921.44;;;26.51;26.40
69187;BME280;56301;56.864;60.554;2023-12-20T09:48:22;96923.28;;;26.51;26.54
69187;BME280;56301;56.864;60.554;2023-12-20T09:50:47;96927.06;;;26.50;26.59
69187;BME280;56301;56.864;60.554;2023-12-20T09:53:10;96924.63;;;26.48;26.47
69187;BME280;56301;56.864;60.554;2023-12-20T09:55:34;96927.88;;;26.50;25.96
69187;BME280;56301;56.864;60.554;2023-12-20T09:57:59;96926.25;;;26.49;26.41
69187;BME280;56301;56.864;60.554;2023-12-20T10:00:22;96917.03;;;26.50;26.50
69187;BME280;56301;56.864;60.554;2023-12-20T10:02:52;96927.88;;;26.50;26.31
69187;BME280;56301;56.864;60.554;2023-12-20T10:05:18;96915.16;;;26.51;25.97
69187;BME280;56301;56.864;60.554;2023-12-20T10:07:48;96917.88;;;26.51;26.54
69187;BME280;56301;56.864;60.554;2023-12-20T10:10:11;96908.91;;;26.50;26.73
69187;BME280;56301;56.864;60.554;2023-12-20T10:12:35;96921.44;;;26.51;25.98
69187;BME280;56301;56.864;60.554;2023-12-20T10:14:57;96914.09;;;26.52;26.12
69187;BME280;56301;56.864;60.554;2023-12-20T10:17:20;96916.47;;;26.48;26.64
69187;BME280;56301;56.864;60.554;2023-12-20T10:19:43;96918.72;;;26.51;26.77
69187;BME280;56301;56.864;60.554;2023-12-20T10:22:06;96919.28;;;26.53;26.00
69187;BME280;56301;56.864;60.554;2023-12-20T10:24:28;96918.22;;;26.54;26.33
69187;BME280;56301;56.864;60.554;2023-12-20T10:27:04;96926.34;;;26.54;25.86
69187;BME280;56301;56.864;60.554;2023-12-20T10:29:26;96923.63;;;26.54;26.24
69187;BME280;56301;56.864;60.554;2023-12-20T10:31:49;96915.28;;;26.56;26.68
69187;BME280;56301;56.864;60.554;2023-12-20T10:34:11;96925.31;;;26.55;26.72
69187;BME280;56301;56.864;60.554;2023-12-20T10:36:34;96921.50;;;26.56;26.79
69187;BME280;56301;56.864;60.554;2023-12-20T10:38:57;96923.63;;;26.54;25.95
69187;BME280;56301;56.864;60.554;2023-12-20T10:41:22;96918.22;;;26.54;26.57
69187;BME280;56301;56.864;60.554;2023-12-20T10:43:46;96924.72;;;26.53;26.60
69187;BME280;56301;56.864;60.554;2023-12-20T10:46:09;96924.97;;;26.52;25.81
69187;BME280;56301;56.864;60.554;2023-12-20T10:48:31;96924.97;;;26.52;26.77
69187;BME280;56301;56.864;60.554;2023-12-20T10:50:55;96922.00;;;26.53;26.97
69187;BME280;56301;56.864;60.554;2023-12-20T10:53:17;96921.16;;;26.53;26.82
69187;BME280;56301;56.864;60.554;2023-12-20T10:55:40;96928.72;;;26.51;26.82
69187;BME280;56301;56.864;60.554;2023-12-20T10:58:07;96920.44;;;26.46;26.59
69187;BME280;56301;56.864;60.554;2023-12-20T11:00:30;96918.94;;;26.50;26.17
69187;BME280;56301;56.864;60.554;2023-12-20T11:02:53;96915.41;;;26.49;26.63
69187;BME280;56301;56.864;60.554;2023-12-20T11:07:43;96915.88;;;26.46;26.62
69187;BME280;56301;56.864;60.554;2023-12-20T11:12:48;96920.81;;;26.49;26.78
69187;BME280;56301;56.864;60.554;2023-12-20T11:15:11;96917.56;;;26.47;25.96
69187;BME280;56301;56.864;60.554;2023-12-20T11:17:34;96923.53;;;26.49;25.69
69187;BME280;56301;56.864;60.554;2023-12-20T11:22:25;96922.47;;;26.50;26.65
69187;BME280;56301;56.864;60.554;2023-12-20T11:24:50;96927.06;;;26.50;26.11
69187;BME280;56301;56.864;60.554;2023-12-20T11:27:13;96929.22;;;26.48;26.68
69187;BME280;56301;56.864;60.554;2023-12-20T11:29:36;96928.41;;;26.47;25.99
69187;BME280;56301;56.864;60.554;2023-12-20T11:32:00;96932.50;;;26.50;26.06
69187;BME280;56301;56.864;60.554;2023-12-20T11:34:22;96932.75;;;26.48;25.78
69187;BME280;56301;56.864;60.554;2023-12-20T11:36:48;96918.94;;;26.50;26.27
69187;BME280;56301;56.864;60.554;2023-12-20T11:39:20;96924.34;;;26.50;26.22
69187;BME280;56301;56.864;60.554;2023-12-20T11:41:44;96918.94;;;26.50;26.30
69187;BME280;56301;56.864;60.554;2023-12-20T11:44:07;96927.88;;;26.50;26.08
69187;BME280;56301;56.864;60.554;2023-12-20T11:46:31;96931.69;;;26.49;26.13
69187;BME280;56301;56.864;60.554;2023-12-20T11:48:54;96938.75;;;26.50;26.74
69187;BME280;56301;56.864;60.554;2023-12-20T11:51:16;96927.88;;;26.50;25.77
69187;BME280;56301;56.864;60.554;2023-12-20T11:53:42;96920.56;;;26.51;26.25
69187;BME280;56301;56.864;60.554;2023-12-20T11:56:05;96919.75;;;26.50;26.05
69187;BME280;56301;56.864;60.554;2023-12-20T11:58:28;96924.34;;;26.50;26.60
69187;BME280;56301;56.864;60.554;2023-12-20T12:00:50;96916.22;;;26.50;26.05
69187;BME280;56301;56.864;60.554;2023-12-20T12:03:14;96915.16;;;26.51;26.78
69187;BME280;56301;56.864;60.554;2023-12-20T12:05:37;96926.00;;;26.51;26.14
69187;BME280;56301;56.864;60.554;2023-12-20T12:07:59;96917.88;;;26.51;25.93
69187;BME280;56301;56.864;60.554;2023-12-20T12:10:22;96915.16;;;26.51;25.84
69187;BME280;56301;56.864;60.554;2023-12-20T12:12:44;96908.91;;;26.50;26.38
69187;BME280;56301;56.864;60.554;2023-12-20T12:15:07;96910.81;;;26.50;26.59
69187;BME280;56301;56.864;60.554;2023-12-20T12:17:29;96913.28;;;26.51;25.97
69187;BME280;56301;56.864;60.554;2023-12-20T12:19:52;96928.72;;;26.51;26.69
69187;BME280;56301;56.864;60.554;2023-12-20T12:22:23;96925.78;;;26.52;26.14
69187;BME280;56301;56.864;60.554;2023-12-20T12:24:46;96926.59;;;26.53;26.49
69187;BME280;56301;56.864;60.554;2023-12-20T12:27:09;96928.50;;;26.52;26.86
69187;BME280;56301;56.864;60.554;2023-12-20T12:29:32;96932.84;;;26.53;26.75
69187;BME280;56301;56.864;60.554;2023-12-20T12:31:55;96930.38;;;26.52;25.88
69187;BME280;56301;56.864;60.554;2023-12-20T12:34:17;96932.84;;;26.53;26.00